Time;durP1;ratioP1;P1;durP2;ratioP2;P2;SDS_P1;SDS_P2;PMS_P1;PMS_P2;Temp;Humidity;BMP_temperature;BMP_pressure;BME280_temperature;BME280_humidity;BME280_pressure;Samples;Min_cycle;Max_cycle;Signal;HPM_P1;HPM_P2
2022/04/26 03:36:39;;;;;;;13.82;11.63;;;12.30;1.00;;;;;;5049484;28;20029;-83
2022/04/26 03:39:05;;;;;;;13.27;11.95;;;12.30;1.00;;;;;;5056180;28;20108;-83
2022/04/26 03:41:32;;;;;;;16.00;12.45;;;12.30;1.00;;;;;;5053037;28;20116;-83
2022/04/26 03:43:58;;;;;;;15.73;12.05;;;12.30;1.00;;;;;;5054499;28;20119;-84
2022/04/26 03:46:24;;;;;;;14.90;13.40;;;12.50;1.00;;;;;;5054349;28;20060;-84
2022/04/26 03:48:49;;;;;;;14.90;13.27;;;12.50;1.00;;;;;;5051062;28;20037;-84
2022/04/26 03:51:15;;;;;;;14.15;12.63;;;12.60;1.00;;;;;;5054525;28;20063;-84
2022/04/26 03:53:41;;;;;;;13.60;12.18;;;12.60;1.00;;;;;;5055223;28;20527;-84
2022/04/26 03:56:07;;;;;;;14.77;13.02;;;12.50;1.00;;;;;;5054800;28;20048;-83
2022/04/26 03:58:33;;;;;;;15.05;13.55;;;12.50;1.00;;;;;;5058446;28;20032;-84
2022/04/26 04:00:59;;;;;;;16.27;13.27;;;12.60;1.00;;;;;;5056306;28;20074;-84
2022/04/26 04:03:26;;;;;;;15.27;13.68;;;12.60;1.00;;;;;;5056406;28;20087;-84
2022/04/26 04:05:52;;;;;;;17.52;13.80;;;12.50;1.00;;;;;;5059815;28;20448;-84
2022/04/26 04:08:18;;;;;;;15.13;13.57;;;12.60;1.00;;;;;;5058336;28;20053;-84
2022/04/26 04:10:44;;;;;;;16.13;14.35;;;12.70;1.00;;;;;;5056969;28;20112;-83
2022/04/26 04:13:10;;;;;;;15.20;13.15;;;12.60;1.00;;;;;;5057549;28;20115;-84
2022/04/26 04:15:36;;;;;;;17.70;14.45;;;12.70;1.00;;;;;;5054018;28;20036;-84
2022/04/26 04:18:02;;;;;;;14.75;13.18;;;12.60;1.00;;;;;;5059272;28;20473;-84
2022/04/26 04:20:29;;;;;;;14.88;12.43;;;12.50;1.00;;;;;;5056082;28;20025;-83
2022/04/26 04:22:56;;;;;;;15.30;13.07;;;12.60;1.00;;;;;;5057927;28;20097;-84
2022/04/26 04:25:21;;;;;;;14.43;12.98;;;12.60;1.00;;;;;;5057917;28;20095;-84
2022/04/26 04:27:47;;;;;;;14.73;12.82;;;12.60;1.00;;;;;;5054232;28;20040;-84
2022/04/26 04:30:13;;;;;;;15.98;12.20;;;12.60;1.00;;;;;;5059030;28;20508;-83
2022/04/26 04:32:39;;;;;;;16.10;12.85;;;12.70;1.00;;;;;;5058262;28;20029;-84
2022/04/26 04:35:06;;;;;;;15.35;12.55;;;12.60;1.00;;;;;;5057209;28;20164;-83
2022/04/26 04:37:32;;;;;;;13.77;12.32;;;12.60;1.00;;;;;;5057741;28;20037;-83
2022/04/26 04:39:57;;;;;;;14.82;13.20;;;12.70;1.00;;;;;;5055350;28;20029;-84
2022/04/26 04:42:23;;;;;;;14.45;12.98;;;12.60;1.00;;;;;;5056114;28;20033;-84
2022/04/26 04:44:49;;;;;;;14.50;12.98;;;12.60;1.00;;;;;;5059037;28;20389;-84
2022/04/26 04:47:14;;;;;;;16.88;13.93;;;12.60;1.00;;;;;;5057209;28;20033;-83
2022/04/26 04:49:40;;;;;;;15.52;13.90;;;12.50;1.00;;;;;;5057483;28;20120;-83
2022/04/26 04:52:06;;;;;;;15.40;13.80;;;12.40;1.00;;;;;;5056387;28;20046;-83
2022/04/26 04:54:32;;;;;;;15.15;13.55;;;12.60;1.00;;;;;;5054383;28;20870;-83
2022/04/26 04:56:57;;;;;;;15.50;13.85;;;12.60;1.00;;;;;;5057868;28;20545;-84
2022/04/26 04:59:23;;;;;;;14.95;13.02;;;12.60;1.00;;;;;;5055834;28;20031;-83
2022/04/26 05:01:49;;;;;;;14.50;13.00;;;12.70;1.00;;;;;;5056994;28;20017;-82
2022/04/26 05:04:14;;;;;;;16.35;13.82;;;12.70;1.00;;;;;;5056986;28;20040;-84
2022/04/26 05:06:40;;;;;;;17.15;13.95;;;12.70;1.00;;;;;;5052618;28;20097;-83
2022/04/26 05:09:05;;;;;;;16.95;14.32;;;12.70;1.00;;;;;;5058701;28;20025;-83
2022/04/26 05:11:31;;;;;;;15.30;13.43;;;12.70;1.00;;;;;;5057058;28;20082;-83
2022/04/26 05:13:57;;;;;;;16.30;14.50;;;12.70;1.00;;;;;;5057072;28;20021;-84
2022/04/26 05:16:22;;;;;;;16.58;13.85;;;12.70;1.00;;;;;;5056533;28;20028;-83
2022/04/26 05:18:48;;;;;;;17.40;13.75;;;12.60;1.00;;;;;;5053396;28;20424;-84
2022/04/26 05:21:14;;;;;;;18.05;13.85;;;12.70;1.00;;;;;;5057737;28;20033;-84
2022/04/26 05:26:25;;;;;;;16.38;14.25;;;12.80;1.00;;;;;;5056977;28;20036;-83
2022/04/26 05:28:51;;;;;;;18.83;14.25;;;12.90;1.00;;;;;;5056827;28;20029;-84
2022/04/26 05:31:17;;;;;;;16.40;13.98;;;12.80;1.00;;;;;;5056334;28;20033;-84
2022/04/26 05:33:42;;;;;;;15.88;14.10;;;12.90;1.00;;;;;;5050961;28;20032;-83
2022/04/26 05:36:08;;;;;;;15.85;14.10;;;12.90;1.00;;;;;;5058631;28;20029;-84
2022/04/26 05:38:34;;;;;;;15.93;13.50;;;13.00;1.00;;;;;;5055058;28;20458;-84
2022/04/26 05:41:00;;;;;;;19.33;14.55;;;13.10;1.00;;;;;;5056727;28;20033;-83
2022/04/26 05:43:26;;;;;;;15.82;13.80;;;13.00;1.00;;;;;;5056385;28;20115;-84
2022/04/26 05:45:52;;;;;;;17.95;15.25;;;13.00;1.00;;;;;;5052955;28;20457;-84
2022/04/26 05:48:17;;;;;;;19.88;14.70;;;13.00;1.00;;;;;;5056543;28;20048;-83
2022/04/26 05:50:43;;;;;;;18.35;15.38;;;12.90;1.00;;;;;;5057061;28;20031;-83
2022/04/26 05:53:09;;;;;;;15.95;14.25;;;12.90;1.00;;;;;;5056281;28;20036;-84
2022/04/26 05:55:35;;;;;;;20.60;15.25;;;13.00;1.00;;;;;;5056162;28;20078;-84
2022/04/26 05:58:02;;;;;;;17.05;14.10;;;13.10;1.00;;;;;;5054267;28;20409;-84
2022/04/26 06:00:28;;;;;;;18.67;15.13;;;13.20;1.00;;;;;;5053267;28;20051;-84
2022/04/26 06:02:53;;;;;;;18.65;14.70;;;13.40;1.00;;;;;;5058109;28;20033;-84
2022/04/26 06:05:20;;;;;;;22.25;15.45;;;13.50;1.00;;;;;;5055899;28;20032;-84
2022/04/26 06:07:46;;;;;;;19.50;14.55;;;13.60;1.00;;;;;;5056004;28;20493;-84
2022/04/26 06:10:12;;;;;;;17.73;15.65;;;13.50;1.00;;;;;;5055557;28;20028;-84
2022/04/26 06:12:39;;;;;;;19.45;16.73;;;13.40;1.00;;;;;;5051326;28;20026;-83
2022/04/26 06:15:05;;;;;;;18.25;16.38;;;13.50;1.00;;;;;;5056890;28;20029;-84
2022/04/26 06:17:32;;;;;;;18.75;16.20;;;13.50;1.00;;;;;;5054476;28;20029;-83
2022/04/26 06:19:58;;;;;;;20.05;17.13;;;13.50;1.00;;;;;;5054852;28;20032;-84
2022/04/26 06:22:24;;;;;;;20.58;16.75;;;13.60;1.00;;;;;;5055541;28;20085;-84
2022/04/26 06:24:51;;;;;;;19.38;16.63;;;13.70;1.00;;;;;;5052227;28;20102;-84
2022/04/26 06:27:17;;;;;;;21.05;17.67;;;13.70;1.00;;;;;;5055994;28;20116;-84
2022/04/26 06:29:43;;;;;;;22.00;18.08;;;13.80;1.00;;;;;;5055941;28;20478;-84
2022/04/26 06:32:09;;;;;;;21.88;16.90;;;13.80;1.00;;;;;;5055490;28;20116;-84
2022/04/26 06:34:34;;;;;;;20.05;17.73;;;14.00;1.00;;;;;;5055321;28;20048;-84
2022/04/26 06:37:00;;;;;;;20.17;17.17;;;14.10;1.00;;;;;;5053495;28;20025;-84
2022/04/26 06:39:25;;;;;;;21.83;17.83;;;14.10;1.00;;;;;;5053593;28;20036;-84
2022/04/26 06:41:51;;;;;;;24.00;18.38;;;14.20;1.00;;;;;;5057119;28;20022;-84
2022/04/26 06:44:17;;;;;;;23.80;19.88;;;14.30;1.00;;;;;;5054851;28;20041;-84
2022/04/26 06:46:43;;;;;;;24.98;19.90;;;14.30;1.00;;;;;;5055229;28;20025;-84
2022/04/26 06:49:08;;;;;;;22.65;18.80;;;14.30;1.00;;;;;;5054283;28;20421;-84
2022/04/26 06:51:38;;;;;;;24.70;19.63;;;14.10;1.00;;;;;;5051816;28;20032;-84
2022/04/26 06:54:04;;;;;;;24.90;18.05;;;14.20;1.00;;;;;;5056516;28;20036;-84
2022/04/26 06:56:30;;;;;;;21.30;18.80;;;14.10;1.00;;;;;;5053615;28;20039;-84
2022/04/26 06:58:55;;;;;;;25.17;19.58;;;14.10;1.00;;;;;;5054499;28;20108;-84
2022/04/26 07:01:21;;;;;;;21.65;19.15;;;14.10;1.00;;;;;;5055002;28;20086;-84
2022/04/26 07:03:47;;;;;;;20.50;17.52;;;14.10;1.00;;;;;;5051030;28;20115;-84
2022/04/26 07:06:13;;;;;;;22.23;19.85;;;14.20;1.00;;;;;;5056288;28;20116;-84
2022/04/26 07:08:39;;;;;;;24.67;19.70;;;14.30;1.00;;;;;;5055282;28;20033;-84
2022/04/26 07:11:04;;;;;;;24.83;19.50;;;14.30;1.00;;;;;;5054810;28;20032;-84
2022/04/26 07:13:30;;;;;;;21.42;18.27;;;14.30;1.00;;;;;;5054646;28;20037;-84
2022/04/26 07:15:56;;;;;;;21.52;18.90;;;14.40;1.00;;;;;;5052139;28;20021;-84
2022/04/26 07:18:21;;;;;;;20.92;18.23;;;14.40;1.00;;;;;;5054075;28;20424;-84
2022/04/26 07:20:47;;;;;;;24.45;18.17;;;14.50;1.00;;;;;;5055870;28;20481;-84
2022/04/26 07:23:13;;;;;;;23.38;18.55;;;14.60;1.00;;;;;;5054546;28;20036;-84
2022/04/26 07:25:40;;;;;;;21.48;17.70;;;14.50;1.00;;;;;;5054784;28;20465;-84
2022/04/26 07:28:06;;;;;;;19.38;17.27;;;14.60;1.00;;;;;;5053129;28;20501;-84
2022/04/26 07:30:34;;;;;;;21.50;17.80;;;14.70;1.00;;;;;;5051708;28;20053;-84
2022/04/26 07:35:53;;;;;;;20.02;17.35;;;14.90;1.00;;;;;;5056435;28;20048;-84
2022/04/26 07:38:19;;;;;;;21.20;17.80;;;14.90;1.00;;;;;;5054657;28;20104;-84
2022/04/26 07:40:45;;;;;;;20.88;16.58;;;14.90;1.00;;;;;;5054708;28;20116;-84
2022/04/26 07:43:11;;;;;;;16.92;15.07;;;14.90;1.00;;;;;;5053537;28;20032;-84
2022/04/26 07:45:38;;;;;;;17.05;15.00;;;15.00;1.00;;;;;;5050637;28;20032;-84
2022/04/26 07:48:05;;;;;;;15.88;14.23;;;15.10;1.00;;;;;;5056381;28;20120;-84
2022/04/26 07:50:31;;;;;;;18.33;15.75;;;15.20;1.00;;;;;;5054468;28;20021;-84
2022/04/26 07:52:58;;;;;;;18.73;16.20;;;15.20;1.00;;;;;;5054441;28;20039;-84
2022/04/26 07:55:24;;;;;;;17.80;15.00;;;15.30;1.00;;;;;;5054415;28;20035;-84
2022/04/26 07:57:50;;;;;;;16.95;14.90;;;15.40;1.00;;;;;;5050528;28;20033;-84
2022/04/26 08:00:16;;;;;;;16.98;15.10;;;15.60;1.00;;;;;;5055255;28;20147;-84
2022/04/26 08:02:42;;;;;;;19.30;15.70;;;15.60;1.00;;;;;;5053395;28;20405;-84
2022/04/26 08:05:08;;;;;;;17.02;15.23;;;15.50;1.00;;;;;;5054265;28;20485;-84
2022/04/26 08:07:39;;;;;;;16.67;14.98;;;15.40;1.00;;;;;;5054403;28;20024;-84
2022/04/26 08:10:07;;;;;;;18.60;15.70;;;15.20;1.00;;;;;;5051451;28;20531;-84
2022/04/26 08:12:32;;;;;;;19.08;16.10;;;15.00;1.00;;;;;;5050895;28;20040;-84
2022/04/26 08:14:58;;;;;;;18.30;16.27;;;14.90;1.00;;;;;;5054898;28;20497;-84
2022/04/26 08:17:23;;;;;;;16.55;14.85;;;14.90;1.00;;;;;;5054197;28;20385;-84
2022/04/26 08:19:49;;;;;;;15.80;14.10;;;14.80;1.00;;;;;;5054237;28;20036;-84
2022/04/26 08:22:15;;;;;;;13.88;12.10;;;15.00;1.00;;;;;;5053889;28;20121;-84
2022/04/26 08:27:30;;;;;;;13.00;11.70;;;15.10;1.00;;;;;;5064373;28;20051;-84
2022/04/26 08:29:58;;;;;;;12.98;11.77;;;15.10;1.00;;;;;;5054296;28;20037;-84
2022/04/26 08:32:26;;;;;;;14.98;13.45;;;15.10;1.00;;;;;;5053974;28;20571;-84
2022/04/26 08:34:53;;;;;;;16.88;13.48;;;15.40;1.00;;;;;;5053817;28;20071;-84
2022/04/26 08:37:20;;;;;;;13.45;12.15;;;15.50;1.00;;;;;;5053965;28;20025;-84
2022/04/26 08:39:48;;;;;;;11.70;10.20;;;15.50;1.00;;;;;;5049639;28;20095;-84
2022/04/26 08:42:14;;;;;;;9.85;8.95;;;15.70;1.00;;;;;;5055780;28;20033;-84
2022/04/26 08:44:40;;;;;;;12.98;9.02;;;15.90;1.00;;;;;;5057991;28;20029;-84
2022/04/26 08:52:49;;;;;;;6.60;5.90;;;16.30;1.00;;;;;;5055962;28;20167;-84
2022/04/26 08:55:16;;;;;;;8.18;6.38;;;16.60;1.00;;;;;;5056909;28;20044;-84
2022/04/26 08:57:41;;;;;;;6.28;5.68;;;16.80;1.00;;;;;;5037127;28;20025;-84
2022/04/26 09:00:11;;;;;;;6.22;5.63;;;16.90;1.00;;;;;;5059293;28;20055;-84
2022/04/26 09:02:38;;;;;;;6.15;5.55;;;17.10;1.00;;;;;;5057335;28;20481;-84
2022/04/26 09:05:11;;;;;;;6.85;5.72;;;17.30;1.00;;;;;;5057106;28;20028;-84
2022/04/26 09:07:37;;;;;;;5.57;5.05;;;17.50;1.00;;;;;;5057267;28;20056;-84
2022/04/26 09:10:17;;;;;;;6.43;5.18;;;17.50;1.00;;;;;;5055112;28;20028;-84
2022/04/26 09:13:20;;;;;;;5.90;5.40;;;17.60;1.00;;;;;;5037026;28;20485;-84
2022/04/26 09:15:54;;;;;;;6.65;5.55;;;17.80;1.00;;;;;;5015300;28;20034;-84
2022/04/26 09:18:22;;;;;;;6.13;5.57;;;17.70;1.00;;;;;;5029013;28;20048;-84
2022/04/26 09:20:51;;;;;;;7.00;5.30;;;17.60;1.00;;;;;;5012994;28;20176;-84
2022/04/26 09:23:28;;;;;;;6.78;5.55;;;17.70;1.00;;;;;;5025836;28;20056;-84
2022/04/26 09:26:07;;;;;;;6.53;5.80;;;17.70;1.00;;;;;;5026160;28;20021;-84
2022/04/26 09:28:34;;;;;;;6.03;5.22;;;17.80;1.00;;;;;;5026974;28;20052;-84
2022/04/26 09:31:00;;;;;;;7.07;5.30;;;17.90;1.00;;;;;;5015218;28;20057;-84
2022/04/26 09:33:32;;;;;;;6.38;5.78;;;17.90;1.00;;;;;;5028709;28;20037;-84
2022/04/26 09:36:02;;;;;;;5.85;5.20;;;18.00;1.00;;;;;;5002067;28;20065;-84
2022/04/26 09:38:31;;;;;;;5.45;4.93;;;18.10;1.00;;;;;;5000878;28;20647;-84
2022/04/26 09:41:01;;;;;;;8.75;5.90;;;18.20;1.00;;;;;;5017389;28;20026;-84
2022/04/26 09:43:28;;;;;;;7.38;5.47;;;17.90;1.00;;;;;;5017328;28;20536;-84
2022/04/26 09:45:58;;;;;;;6.57;5.90;;;17.60;1.00;;;;;;5014400;28;20026;-84
2022/04/26 09:48:38;;;;;;;6.68;5.95;;;17.50;1.00;;;;;;5014898;28;20045;-84
2022/04/26 09:51:05;;;;;;;6.95;6.25;;;17.40;1.00;;;;;;5057614;28;20021;-84
2022/04/26 09:53:32;;;;;;;7.13;5.85;;;17.20;1.00;;;;;;5055917;28;20032;-84
2022/04/26 09:56:05;;;;;;;6.10;5.50;;;17.50;1.00;;;;;;5056291;28;20021;-84
2022/04/26 09:58:31;;;;;;;6.18;5.57;;;17.60;1.00;;;;;;5056178;28;20128;-84
2022/04/26 10:01:00;;;;;;;7.40;6.03;;;17.80;1.00;;;;;;5053621;28;20021;-84
2022/04/26 10:03:31;;;;;;;6.30;5.70;;;17.70;1.00;;;;;;5054259;28;20064;-84
2022/04/26 10:06:07;;;;;;;6.70;5.68;;;17.80;1.00;;;;;;5056254;28;20024;-84
2022/04/26 10:08:35;;;;;;;6.45;5.80;;;17.90;1.00;;;;;;5054334;28;20060;-84
2022/04/26 10:11:02;;;;;;;6.68;5.95;;;18.20;1.00;;;;;;5054438;28;20029;-84
2022/04/26 10:13:35;;;;;;;6.95;5.30;;;18.40;1.00;;;;;;5055999;28;20366;-84
2022/04/26 10:16:09;;;;;;;6.32;5.72;;;18.40;1.00;;;;;;5053758;28;20032;-84
2022/04/26 10:18:45;;;;;;;8.07;6.03;;;18.40;1.00;;;;;;5052537;28;20493;-84
2022/04/26 10:21:31;;;;;;;6.80;5.50;;;18.30;1.00;;;;;;5064761;28;20021;-84
2022/04/26 10:24:01;;;;;;;6.93;5.82;;;18.40;1.00;;;;;;5051812;28;20088;-84
2022/04/26 10:26:27;;;;;;;6.95;5.55;;;18.20;1.00;;;;;;5055664;28;20393;-84
2022/04/26 10:29:01;;;;;;;7.53;6.38;;;18.30;1.00;;;;;;5055747;28;20025;-84
2022/04/26 10:31:37;;;;;;;6.22;5.45;;;18.30;1.00;;;;;;5055602;28;20481;-84
2022/04/26 10:34:18;;;;;;;5.63;5.13;;;18.50;1.00;;;;;;5053730;28;20052;-84
2022/04/26 10:36:45;;;;;;;5.53;5.03;;;18.80;1.00;;;;;;5034993;28;20502;-84
2022/04/26 10:39:13;;;;;;;6.43;5.82;;;18.80;1.00;;;;;;5057527;28;20067;-84
2022/04/26 10:41:43;;;;;;;8.73;4.90;;;18.60;1.00;;;;;;5054342;28;20090;-84
2022/04/26 10:44:15;;;;;;;5.53;5.03;;;18.90;1.00;;;;;;5055458;28;20107;-84
2022/04/26 10:46:52;;;;;;;5.18;4.75;;;18.90;1.00;;;;;;5054054;28;20025;-83
2022/04/26 10:49:29;;;;;;;5.20;4.32;;;18.90;1.00;;;;;;5053686;28;20028;-84
2022/04/26 10:51:56;;;;;;;5.93;5.35;;;19.30;1.00;;;;;;5051970;28;20265;-84
2022/04/26 10:54:46;;;;;;;5.45;4.95;;;19.90;1.00;;;;;;5054782;28;20477;-84
2022/04/26 10:57:16;;;;;;;5.30;4.85;;;20.10;1.00;;;;;;5064539;28;20028;-84
2022/04/26 10:59:43;;;;;;;5.72;5.22;;;20.80;1.00;;;;;;5054151;28;20111;-84
2022/04/26 11:02:12;;;;;;;5.20;4.60;;;21.60;1.00;;;;;;5055215;28;20079;-84
2022/04/26 11:04:37;;;;;;;5.53;4.60;;;21.90;1.00;;;;;;5053171;28;20112;-85
2022/04/26 11:07:16;;;;;;;6.20;5.45;;;21.70;1.00;;;;;;5052879;28;20507;-84
2022/04/26 11:09:55;;;;;;;5.82;5.32;;;22.30;1.00;;;;;;5034683;28;20025;-85
2022/04/26 11:12:28;;;;;;;5.55;5.05;;;23.00;1.00;;;;;;5065053;28;20033;-85
2022/04/26 11:14:56;;;;;;;5.90;5.28;;;23.60;1.00;;;;;;5054614;28;20031;-84
2022/04/26 11:17:22;;;;;;;5.45;4.65;;;22.90;1.00;;;;;;5054948;28;20080;-84
2022/04/26 11:19:55;;;;;;;5.57;5.07;;;22.60;1.00;;;;;;5054517;28;20429;-85
2022/04/26 11:22:22;;;;;;;5.30;4.80;;;21.70;1.00;;;;;;5054624;28;20492;-85
2022/04/26 11:30:29;;;;;;;5.53;4.90;;;24.30;1.00;;;;;;5064947;28;20133;-85
2022/04/26 11:33:03;;;;;;;5.55;5.03;;;24.90;1.00;;;;;;5054611;28;20074;-84
2022/04/26 11:35:29;;;;;;;5.30;4.90;;;25.00;1.00;;;;;;5054191;28;20048;-85
2022/04/26 11:37:58;;;;;;;5.03;4.60;;;25.50;1.00;;;;;;5054600;28;20024;-84
2022/04/26 11:40:27;;;;;;;5.07;4.68;;;26.50;1.00;;;;;;5054554;28;20032;-85
2022/04/26 11:42:56;;;;;;;5.07;4.57;;;27.20;1.00;;;;;;5051396;28;20056;-84
2022/04/26 11:45:23;;;;;;;6.25;4.13;;;27.50;1.00;;;;;;5053967;28;20124;-85
2022/04/26 11:47:49;;;;;;;5.30;4.38;;;27.40;1.00;;;;;;5055306;28;20025;-84
2022/04/26 11:50:29;;;;;;;4.47;4.10;;;25.40;1.00;;;;;;5054512;28;20036;-85
2022/04/26 11:53:06;;;;;;;4.55;4.25;;;24.90;1.00;;;;;;5054376;28;20117;-85
2022/04/26 11:55:41;;;;;;;4.88;4.47;;;25.50;1.00;;;;;;5054446;28;20481;-85
2022/04/26 11:58:19;;;;;;;4.28;3.88;;;26.40;1.00;;;;;;5053176;28;20017;-85
2022/04/26 12:00:55;;;;;;;4.75;4.30;;;26.80;1.00;;;;;;5034460;28;20025;-85
2022/04/26 12:03:24;;;;;;;3.97;3.67;;;27.10;1.00;;;;;;5064056;28;20040;-85
2022/04/26 12:05:54;;;;;;;4.50;4.13;;;27.40;1.00;;;;;;5055492;28;20390;-85
2022/04/26 12:08:21;;;;;;;4.10;3.70;;;28.10;1.00;;;;;;5052867;28;20025;-85
2022/04/26 12:10:48;;;;;;;4.55;4.20;;;28.90;1.00;;;;;;5054244;28;20029;-85
2022/04/26 12:13:15;;;;;;;4.15;3.80;;;29.00;1.00;;;;;;5054001;28;20090;-85
2022/04/26 12:15:40;;;;;;;4.38;3.97;;;28.10;1.00;;;;;;5048554;28;20394;-85
2022/04/26 12:18:10;;;;;;;4.25;3.95;;;26.70;1.00;;;;;;5056345;28;20053;-83
2022/04/26 12:20:37;;;;;;;3.60;3.30;;;26.70;1.00;;;;;;5057663;28;20121;-85
2022/04/26 12:23:05;;;;;;;4.03;3.72;;;27.60;1.00;;;;;;5055150;28;20040;-85
2022/04/26 12:25:33;;;;;;;4.38;3.92;;;27.70;1.00;;;;;;5057876;28;20103;-84
2022/04/26 12:28:07;;;;;;;7.97;6.43;;;27.70;1.00;;;;;;5052465;28;20445;-85
2022/04/26 12:30:37;;;;;;;4.32;3.92;;;28.20;1.00;;;;;;5045687;28;20029;-85
2022/04/26 12:33:05;;;;;;;3.97;3.67;;;28.60;1.00;;;;;;5057953;28;20486;-85
2022/04/26 12:35:31;;;;;;;4.50;4.10;;;27.70;1.00;;;;;;5057489;28;20061;-84
2022/04/26 12:38:08;;;;;;;4.20;3.90;;;25.90;1.00;;;;;;5057727;28;20509;-84
2022/04/26 12:40:34;;;;;;;4.13;3.83;;;24.80;1.00;;;;;;5057776;28;20098;-84
2022/04/26 12:43:00;;;;;;;6.13;4.50;;;24.00;1.00;;;;;;5053877;28;20573;-84
2022/04/26 12:45:26;;;;;;;4.97;4.57;;;23.60;1.00;;;;;;5056142;28;20104;-84
2022/04/26 12:51:11;;;;;;;5.72;4.18;;;26.20;1.00;;;;;;5057426;28;20032;-84
2022/04/26 12:53:37;;;;;;;3.92;3.63;;;26.80;1.00;;;;;;5057428;28;20616;-84
2022/04/26 12:56:08;;;;;;;5.07;4.68;;;27.70;1.00;;;;;;5057333;28;20032;-85
2022/04/26 12:58:35;;;;;;;6.38;4.70;;;27.60;1.00;;;;;;5057405;28;20037;-85
2022/04/26 13:01:02;;;;;;;5.07;4.68;;;27.60;1.00;;;;;;5054863;28;20104;-85
2022/04/26 13:03:28;;;;;;;4.60;4.20;;;28.10;1.00;;;;;;5055313;28;20033;-85
2022/04/26 13:06:17;;;;;;;4.22;3.92;;;27.60;1.00;;;;;;5059019;28;20074;-84
2022/04/26 13:08:48;;;;;;;5.20;4.70;;;26.60;1.00;;;;;;5057280;28;20029;-84
2022/04/26 13:11:17;;;;;;;5.20;4.80;;;26.10;1.00;;;;;;5057167;28;20104;-84
2022/04/26 13:13:46;;;;;;;4.97;4.57;;;27.10;1.00;;;;;;5057080;28;20112;-85
2022/04/26 13:16:12;;;;;;;4.82;4.28;;;27.60;1.00;;;;;;5056033;28;20024;-84
2022/04/26 13:18:38;;;;;;;4.57;4.18;;;28.00;1.00;;;;;;5053433;28;20087;-85
2022/04/26 13:21:05;;;;;;;4.50;4.10;;;27.90;1.00;;;;;;5059020;28;20029;-85
2022/04/26 13:23:34;;;;;;;4.90;4.43;;;27.60;1.00;;;;;;5055417;28;20037;-84
2022/04/26 13:26:00;;;;;;;8.18;4.60;;;26.40;1.00;;;;;;5055316;28;20055;-85
2022/04/26 13:28:26;;;;;;;4.45;4.05;;;26.60;1.00;;;;;;5056371;28;20032;-84
2022/04/26 13:30:52;;;;;;;5.03;4.53;;;27.40;1.00;;;;;;5053187;28;20036;-85
2022/04/26 13:33:17;;;;;;;4.82;4.35;;;27.80;1.00;;;;;;5057162;28;20029;-85
2022/04/26 13:35:43;;;;;;;6.32;5.82;;;27.90;1.00;;;;;;5057287;28;20111;-85
2022/04/26 13:38:13;;;;;;;5.25;4.75;;;27.60;1.00;;;;;;5056721;28;20057;-85
2022/04/26 13:40:40;;;;;;;4.63;4.32;;;27.40;1.00;;;;;;5056604;28;20036;-85
2022/04/26 13:43:07;;;;;;;5.03;4.53;;;27.50;1.00;;;;;;5055055;28;20465;-84
2022/04/26 13:45:34;;;;;;;4.80;4.30;;;27.40;1.00;;;;;;5053182;28;20107;-85
2022/04/26 13:48:01;;;;;;;4.95;4.55;;;27.30;1.00;;;;;;5058488;28;20087;-85
2022/04/26 13:50:28;;;;;;;5.22;4.72;;;27.40;1.00;;;;;;5056378;28;20039;-84
2022/04/26 13:52:54;;;;;;;5.53;5.03;;;27.10;1.00;;;;;;5056411;28;20103;-84
2022/04/26 13:55:20;;;;;;;5.28;4.78;;;26.30;1.00;;;;;;5056318;28;20107;-84
2022/04/26 13:57:46;;;;;;;5.32;4.80;;;24.90;1.00;;;;;;5052151;28;20032;-85
2022/04/26 14:00:13;;;;;;;4.60;4.20;;;25.40;1.00;;;;;;5057919;28;20452;-84
2022/04/26 14:02:45;;;;;;;4.80;4.40;;;26.30;1.00;;;;;;5054601;28;20033;-84
2022/04/26 14:05:11;;;;;;;4.78;4.38;;;26.60;1.00;;;;;;5054567;28;20079;-84
2022/04/26 14:07:36;;;;;;;5.00;4.60;;;26.60;1.00;;;;;;5056052;28;20028;-84
2022/04/26 14:10:03;;;;;;;4.68;4.28;;;26.90;1.00;;;;;;5054044;28;20025;-84
2022/04/26 14:12:28;;;;;;;4.80;4.40;;;26.90;1.00;;;;;;5053996;28;20033;-84
2022/04/26 14:23:08;;;;;;;4.00;3.55;;;27.10;1.00;;;;;;5030337;28;20075;-84
2022/04/26 14:25:35;;;;;;;3.72;3.40;;;27.30;1.00;;;;;;5030277;28;20553;-84
2022/04/26 14:28:00;;;;;;;4.20;3.90;;;27.20;1.00;;;;;;5029992;28;20034;-84
2022/04/26 14:30:26;;;;;;;4.28;3.97;;;27.00;1.00;;;;;;5030401;28;20556;-84
2022/04/26 14:32:54;;;;;;;4.78;4.30;;;26.60;1.00;;;;;;5031062;28;20052;-84
2022/04/26 14:35:19;;;;;;;3.95;3.65;;;26.90;1.00;;;;;;5029826;28;20550;-84
2022/04/26 14:37:45;;;;;;;4.20;3.90;;;26.60;1.00;;;;;;5029997;28;20018;-84
2022/04/26 14:40:12;;;;;;;4.28;3.88;;;26.10;1.00;;;;;;5029775;28;20042;-84
2022/04/26 14:42:38;;;;;;;4.45;3.90;;;26.50;1.00;;;;;;5029864;28;20502;-84
2022/04/26 14:45:05;;;;;;;3.78;3.40;;;26.50;1.00;;;;;;5030761;28;20057;-84
2022/04/26 14:47:30;;;;;;;3.63;3.13;;;26.20;1.00;;;;;;5029961;28;20037;-84
2022/04/26 14:50:00;;;;;;;4.47;3.60;;;26.60;1.00;;;;;;5029933;28;20040;-84
2022/04/26 14:52:25;;;;;;;4.15;3.60;;;26.20;1.00;;;;;;5029762;28;20075;-83
2022/04/26 14:54:51;;;;;;;3.83;3.53;;;26.30;1.00;;;;;;5035825;28;20029;-84
2022/04/26 14:57:17;;;;;;;3.72;3.33;;;26.60;1.00;;;;;;5055465;28;20063;-84
2022/04/26 14:59:47;;;;;;;4.00;3.13;;;26.70;1.00;;;;;;5054253;28;20090;-84
2022/04/26 15:02:17;;;;;;;5.30;3.83;;;26.60;1.00;;;;;;5055058;28;20021;-84
2022/04/26 15:04:43;;;;;;;4.38;3.75;;;26.30;1.00;;;;;;5054953;28;20044;-84
2022/04/26 15:07:09;;;;;;;3.60;3.30;;;26.30;1.00;;;;;;5053986;28;20016;-84
2022/04/26 15:09:44;;;;;;;3.92;3.63;;;26.10;1.00;;;;;;5051818;28;20171;-84
2022/04/26 15:17:49;;;;;;;3.97;3.67;;;26.10;1.00;;;;;;5054628;28;20121;-84
2022/04/26 15:20:18;;;;;;;3.67;3.38;;;26.30;1.00;;;;;;5053529;28;20028;-84
2022/04/26 15:22:44;;;;;;;3.95;3.60;;;25.90;1.00;;;;;;5053145;28;20090;-84
2022/04/26 15:25:10;;;;;;;3.90;3.45;;;26.10;1.00;;;;;;5053816;28;20032;-84
2022/04/26 15:27:38;;;;;;;6.30;3.42;;;26.10;1.00;;;;;;5051167;28;20458;-84
2022/04/26 15:30:09;;;;;;;3.67;3.38;;;25.90;1.00;;;;;;5056665;28;20167;-84
2022/04/26 15:32:35;;;;;;;3.92;3.00;;;25.80;1.00;;;;;;5054710;28;20052;-84
2022/04/26 15:35:01;;;;;;;3.53;3.22;;;25.90;1.00;;;;;;5054414;28;20073;-84
2022/04/26 15:37:28;;;;;;;4.00;3.50;;;25.00;1.00;;;;;;5054669;28;20063;-84
2022/04/26 15:39:54;;;;;;;4.10;3.70;;;25.00;1.00;;;;;;5050967;28;20028;-83
2022/04/26 15:42:23;;;;;;;3.47;3.17;;;25.00;1.00;;;;;;5054582;28;20055;-84
2022/04/26 15:44:50;;;;;;;3.92;3.03;;;25.20;1.00;;;;;;5055669;28;20382;-84
2022/04/26 15:47:16;;;;;;;3.40;3.10;;;25.50;1.00;;;;;;5054463;28;20123;-84
2022/04/26 15:49:42;;;;;;;4.25;3.30;;;25.40;1.00;;;;;;5054410;28;20455;-84
2022/04/26 15:52:08;;;;;;;3.67;3.30;;;25.30;1.00;;;;;;5055413;28;20028;-84
2022/04/26 15:54:35;;;;;;;3.45;3.25;;;25.40;1.00;;;;;;5055172;28;20052;-83
2022/04/26 15:57:04;;;;;;;3.10;2.90;;;25.10;1.00;;;;;;5060501;28;20108;-83
2022/04/26 15:59:30;;;;;;;2.95;2.75;;;24.80;1.00;;;;;;5057123;28;20031;-84
2022/04/26 16:01:56;;;;;;;4.20;3.30;;;24.90;1.00;;;;;;5056955;28;20546;-83
2022/04/26 16:04:22;;;;;;;5.25;3.20;;;24.90;1.00;;;;;;5058186;28;20036;-84
2022/04/26 16:06:48;;;;;;;3.40;3.00;;;24.90;1.00;;;;;;5052337;28;20021;-84
2022/04/26 16:20:31;;;;;;;3.20;2.90;;;24.50;1.00;;;;;;5058515;28;20032;-83
2022/04/26 16:23:00;;;;;;;3.00;2.80;;;24.50;1.00;;;;;;5057986;28;20037;-83
2022/04/26 16:25:26;;;;;;;3.55;3.20;;;24.70;1.00;;;;;;5057599;28;20090;-84
2022/04/26 16:27:52;;;;;;;4.18;3.10;;;24.70;1.00;;;;;;5054386;28;20183;-86
2022/04/26 16:30:17;;;;;;;3.40;2.90;;;24.60;1.00;;;;;;5058608;28;20487;-85
2022/04/26 16:32:43;;;;;;;3.40;3.10;;;24.70;1.00;;;;;;5058434;28;20025;-85
2022/04/26 16:35:11;;;;;;;3.90;3.15;;;24.50;1.00;;;;;;5057402;28;20498;-85
2022/04/26 16:37:40;;;;;;;3.40;2.90;;;24.30;1.00;;;;;;5056235;28;20020;-85
2022/04/26 16:40:06;;;;;;;3.40;3.08;;;24.30;1.00;;;;;;5054144;28;20036;-85
2022/04/26 16:42:32;;;;;;;3.50;3.17;;;24.10;1.00;;;;;;5054861;28;20029;-85
2022/04/26 16:44:57;;;;;;;3.33;3.03;;;24.00;1.00;;;;;;5059504;28;20029;-86
2022/04/26 16:47:23;;;;;;;4.35;2.92;;;24.10;1.00;;;;;;5057448;28;20079;-85
2022/04/26 16:49:49;;;;;;;3.47;3.00;;;23.90;1.00;;;;;;5057443;28;20461;-85
2022/04/26 16:52:15;;;;;;;3.65;2.70;;;23.70;1.00;;;;;;5057056;28;20043;-85
2022/04/26 16:54:41;;;;;;;4.07;2.80;;;23.80;1.00;;;;;;5053411;28;20027;-85
2022/04/26 16:57:07;;;;;;;3.53;3.00;;;23.80;1.00;;;;;;5059330;28;20029;-85
2022/04/26 16:59:32;;;;;;;3.67;3.25;;;24.00;1.00;;;;;;5057451;28;20025;-86
2022/04/26 17:01:58;;;;;;;3.53;3.22;;;23.70;1.00;;;;;;5057154;28;20544;-85
2022/04/26 17:04:24;;;;;;;3.33;3.05;;;23.50;1.00;;;;;;5056306;28;20127;-86
2022/04/26 17:06:50;;;;;;;3.40;3.10;;;23.60;1.00;;;;;;5052998;28;20036;-85
2022/04/26 17:09:16;;;;;;;3.65;3.35;;;23.70;1.00;;;;;;5058436;28;20464;-86
2022/04/26 17:11:42;;;;;;;3.47;2.85;;;23.40;1.00;;;;;;5057386;28;20424;-85
2022/04/26 17:14:09;;;;;;;3.30;3.00;;;23.40;1.00;;;;;;5056940;28;20089;-85